Sunny South, Alabama
Current Conditions -  °F | °C
As of 5:35 PM on Saturday 22 Nov 2014 (Local Time) from KDYA Reporting Station
Broken Clouds Broken Clouds  
Wind Chill: 65°   Ceiling: 4000
Heat Index: 65°   Visibility: 10mi
Dew Point: 51°   Wind: 5mph
Humidity: 60%   Direction: 100°E
Pressure: 30.09"   Gusts: NA
Location:  31.949°N, 87.5576°W
Report Text: KDYA 222335Z AUTO 10004KT 10SM SCT032 BKN040 19/11 A3009 RMK AO2 T01850107
Loading
Personal Weather Stations






























Interactive Weather Map New forecast layout! Learn more

10-Day Weather Forecast

Advertisements
Track Severe Weather on mobile